TSR weather

Timişoara Traian Vuia Airport
Timişoara, Timiş, Romania

Public forecast

Using degrees Celsius for public forecast. Weather courtesy of forecast.io.

METAR (pilot weather report)

Retrieved 2019/09/21 12:30 UTC (0 seconds ago):

LRTR 211230Z VRB03KT CAVOK 19/M00 Q1026 NOSIG

TAF (pilot weather forecast)

Retrieved 2019/09/21 12:33 UTC (0 seconds ago):

TAF LRTR 211100Z 2112/2212 08008KT CAVOK BECMG 2208/2210 16010KT